sensor_id;sensor_type;location;lat;lon;timestamp;pressure;altitude;pressure_sealevel;temperature;humidity
72110;BME280;59983;52.010;5.420;2023-05-25T00:01:37;102639.00;;;11.48;88.96
72110;BME280;59983;52.010;5.420;2023-05-25T00:04:04;102636.53;;;11.38;89.41
72110;BME280;59983;52.010;5.420;2023-05-25T00:06:31;102647.53;;;11.33;89.38
72110;BME280;59983;52.010;5.420;2023-05-25T00:08:58;102651.75;;;11.25;90.10
72110;BME280;59983;52.010;5.420;2023-05-25T00:11:25;102647.63;;;11.28;89.79
72110;BME280;59983;52.010;5.420;2023-05-25T00:13:51;102647.94;;;11.26;90.26
72110;BME280;59983;52.010;5.420;2023-05-25T00:16:19;102639.16;;;11.29;90.15
72110;BME280;59983;52.010;5.420;2023-05-25T00:18:46;102638.97;;;11.40;89.91
72110;BME280;59983;52.010;5.420;2023-05-25T00:21:14;102641.69;;;11.40;89.76
72110;BME280;59983;52.010;5.420;2023-05-25T00:23:41;102636.75;;;11.42;89.67
72110;BME280;59983;52.010;5.420;2023-05-25T00:26:08;102638.34;;;11.43;89.56
72110;BME280;59983;52.010;5.420;2023-05-25T00:28:35;102643.28;;;11.41;89.74
72110;BME280;59983;52.010;5.420;2023-05-25T00:31:01;102648.19;;;11.39;89.52
72110;BME280;59983;52.010;5.420;2023-05-25T00:33:28;102636.25;;;11.40;89.50
72110;BME280;59983;52.010;5.420;2023-05-25T00:35:55;102645.69;;;11.42;88.96
72110;BME280;59983;52.010;5.420;2023-05-25T00:38:22;102642.47;;;11.40;88.53
72110;BME280;59983;52.010;5.420;2023-05-25T00:40:54;102640.50;;;11.32;89.09
72110;BME280;59983;52.010;5.420;2023-05-25T00:43:20;102652.38;;;11.22;89.07
72110;BME280;59983;52.010;5.420;2023-05-25T00:45:48;102652.97;;;11.19;89.41
72110;BME280;59983;52.010;5.420;2023-05-25T00:48:17;102651.78;;;11.12;89.74
72110;BME280;59983;52.010;5.420;2023-05-25T00:50:43;102641.34;;;11.05;89.67
72110;BME280;59983;52.010;5.420;2023-05-25T00:53:12;102644.47;;;10.98;90.33
72110;BME280;59983;52.010;5.420;2023-05-25T00:55:57;102639.72;;;11.04;90.36
72110;BME280;59983;52.010;5.420;2023-05-25T00:58:30;102643.25;;;11.04;90.10
72110;BME280;59983;52.010;5.420;2023-05-25T01:00:58;102641.03;;;11.06;89.85
72110;BME280;59983;52.010;5.420;2023-05-25T01:03:26;102645.66;;;11.06;90.00
72110;BME280;59983;52.010;5.420;2023-05-25T01:05:55;102653.28;;;11.04;89.61
72110;BME280;59983;52.010;5.420;2023-05-25T01:08:23;102653.72;;;10.97;89.85
72110;BME280;59983;52.010;5.420;2023-05-25T01:10:51;102657.63;;;10.91;90.21
72110;BME280;59983;52.010;5.420;2023-05-25T01:13:19;102646.59;;;10.88;90.51
72110;BME280;59983;52.010;5.420;2023-05-25T01:15:47;102662.66;;;10.84;90.40
72110;BME280;59983;52.010;5.420;2023-05-25T01:18:15;102661.66;;;10.80;90.88
72110;BME280;59983;52.010;5.420;2023-05-25T01:20:59;102669.59;;;10.76;90.50
72110;BME280;59983;52.010;5.420;2023-05-25T01:26:50;102669.88;;;10.75;91.13
72110;BME280;59983;52.010;5.420;2023-05-25T01:29:20;102671.00;;;10.74;91.34
72110;BME280;59983;52.010;5.420;2023-05-25T01:31:48;102678.66;;;10.72;91.21
72110;BME280;59983;52.010;5.420;2023-05-25T01:34:15;102676.25;;;10.70;91.18
72110;BME280;59983;52.010;5.420;2023-05-25T01:36:42;102681.84;;;10.74;91.21
72110;BME280;59983;52.010;5.420;2023-05-25T01:39:09;102675.63;;;10.73;91.20
72110;BME280;59983;52.010;5.420;2023-05-25T01:41:36;102689.28;;;10.68;90.66
72110;BME280;59983;52.010;5.420;2023-05-25T01:44:03;102688.88;;;10.61;91.08
72110;BME280;59983;52.010;5.420;2023-05-25T01:46:36;102690.56;;;10.57;90.96
72110;BME280;59983;52.010;5.420;2023-05-25T01:49:22;102686.88;;;10.53;90.94
72110;BME280;59983;52.010;5.420;2023-05-25T01:51:57;102692.97;;;10.45;91.02
72110;BME280;59983;52.010;5.420;2023-05-25T01:54:37;102696.56;;;10.40;91.65
72110;BME280;59983;52.010;5.420;2023-05-25T01:57:09;102684.91;;;10.40;91.22
72110;BME280;59983;52.010;5.420;2023-05-25T01:59:40;102688.44;;;10.40;91.37
72110;BME280;59983;52.010;5.420;2023-05-25T02:02:08;102693.06;;;10.40;91.06
72110;BME280;59983;52.010;5.420;2023-05-25T02:04:36;102687.19;;;10.33;91.28
72110;BME280;59983;52.010;5.420;2023-05-25T02:07:03;102696.84;;;10.25;91.54
72110;BME280;59983;52.010;5.420;2023-05-25T02:09:30;102691.16;;;10.21;91.44
72110;BME280;59983;52.010;5.420;2023-05-25T02:11:56;102682.22;;;10.21;91.33
72110;BME280;59983;52.010;5.420;2023-05-25T02:14:23;102689.50;;;10.26;91.12
72110;BME280;59983;52.010;5.420;2023-05-25T02:16:50;102691.84;;;10.13;91.41
72110;BME280;59983;52.010;5.420;2023-05-25T02:19:17;102692.50;;;10.05;91.85
72110;BME280;59983;52.010;5.420;2023-05-25T02:21:43;102692.31;;;10.02;91.95
72110;BME280;59983;52.010;5.420;2023-05-25T02:24:10;102691.81;;;10.00;91.56
72110;BME280;59983;52.010;5.420;2023-05-25T02:26:37;102697.88;;;9.91;91.77
72110;BME280;59983;52.010;5.420;2023-05-25T02:29:04;102693.56;;;9.90;92.30
72110;BME280;59983;52.010;5.420;2023-05-25T02:31:31;102696.84;;;9.87;92.25
72110;BME280;59983;52.010;5.420;2023-05-25T02:33:58;102695.25;;;9.86;92.25
72110;BME280;59983;52.010;5.420;2023-05-25T02:36:25;102693.63;;;9.85;91.75
72110;BME280;59983;52.010;5.420;2023-05-25T02:38:52;102707.19;;;9.85;91.85
72110;BME280;59983;52.010;5.420;2023-05-25T02:41:19;102701.69;;;9.90;91.62
72110;BME280;59983;52.010;5.420;2023-05-25T02:43:46;102698.47;;;9.88;91.45
72110;BME280;59983;52.010;5.420;2023-05-25T02:46:13;102692.69;;;9.76;91.48
72110;BME280;59983;52.010;5.420;2023-05-25T02:48:41;102695.75;;;9.70;91.97
72110;BME280;59983;52.010;5.420;2023-05-25T02:51:08;102689.69;;;9.78;91.51
72110;BME280;59983;52.010;5.420;2023-05-25T02:53:35;102692.47;;;9.73;91.81
72110;BME280;59983;52.010;5.420;2023-05-25T02:56:02;102689.53;;;9.69;91.70
72110;BME280;59983;52.010;5.420;2023-05-25T02:58:30;102685.97;;;9.74;92.10
72110;BME280;59983;52.010;5.420;2023-05-25T03:00:56;102694.16;;;9.69;91.82
72110;BME280;59983;52.010;5.420;2023-05-25T03:03:26;102693.06;;;9.70;92.01
72110;BME280;59983;52.010;5.420;2023-05-25T03:05:53;102688.22;;;9.67;92.19
72110;BME280;59983;52.010;5.420;2023-05-25T03:08:19;102693.44;;;9.63;92.34
72110;BME280;59983;52.010;5.420;2023-05-25T03:10:46;102702.28;;;9.69;92.25
72110;BME280;59983;52.010;5.420;2023-05-25T03:13:12;102700.88;;;9.71;92.09
72110;BME280;59983;52.010;5.420;2023-05-25T03:15:39;102706.31;;;9.71;92.05
72110;BME280;59983;52.010;5.420;2023-05-25T03:18:06;102701.63;;;9.77;92.01
72110;BME280;59983;52.010;5.420;2023-05-25T03:20:33;102704.63;;;9.75;91.99
72110;BME280;59983;52.010;5.420;2023-05-25T03:23:00;102703.81;;;9.75;91.90
72110;BME280;59983;52.010;5.420;2023-05-25T03:25:26;102712.16;;;9.59;92.13
72110;BME280;59983;52.010;5.420;2023-05-25T03:27:53;102711.22;;;9.50;92.54
72110;BME280;59983;52.010;5.420;2023-05-25T03:30:21;102719.97;;;9.42;93.19
72110;BME280;59983;52.010;5.420;2023-05-25T03:32:47;102719.34;;;9.50;93.73
72110;BME280;59983;52.010;5.420;2023-05-25T03:35:14;102716.31;;;9.52;93.86
72110;BME280;59983;52.010;5.420;2023-05-25T03:37:40;102728.41;;;9.59;93.84
72110;BME280;59983;52.010;5.420;2023-05-25T03:40:07;102719.53;;;9.54;94.17
72110;BME280;59983;52.010;5.420;2023-05-25T03:42:35;102713.41;;;9.48;94.11
72110;BME280;59983;52.010;5.420;2023-05-25T03:45:02;102723.50;;;9.43;94.63
72110;BME280;59983;52.010;5.420;2023-05-25T03:47:28;102722.09;;;9.45;95.10
72110;BME280;59983;52.010;5.420;2023-05-25T03:49:55;102719.38;;;9.45;95.10
72110;BME280;59983;52.010;5.420;2023-05-25T03:52:22;102717.22;;;9.47;95.12
72110;BME280;59983;52.010;5.420;2023-05-25T03:54:48;102714.72;;;9.51;95.19
72110;BME280;59983;52.010;5.420;2023-05-25T03:57:15;102721.44;;;9.53;95.06
72110;BME280;59983;52.010;5.420;2023-05-25T03:59:41;102722.50;;;9.57;95.08
72110;BME280;59983;52.010;5.420;2023-05-25T04:02:08;102722.41;;;9.62;95.02
72110;BME280;59983;52.010;5.420;2023-05-25T04:04:34;102725.94;;;9.63;94.98
72110;BME280;59983;52.010;5.420;2023-05-25T04:07:01;102724.41;;;9.57;95.14
72110;BME280;59983;52.010;5.420;2023-05-25T04:09:28;102721.41;;;9.58;95.26
72110;BME280;59983;52.010;5.420;2023-05-25T04:11:54;102728.06;;;9.66;95.02
72110;BME280;59983;52.010;5.420;2023-05-25T04:14:21;102733.69;;;9.70;95.03
72110;BME280;59983;52.010;5.420;2023-05-25T04:16:47;102731.22;;;9.73;95.24
72110;BME280;59983;52.010;5.420;2023-05-25T04:19:14;102727.91;;;9.76;95.43
72110;BME280;59983;52.010;5.420;2023-05-25T04:21:41;102732.75;;;9.79;95.42
72110;BME280;59983;52.010;5.420;2023-05-25T04:24:07;102733.50;;;9.85;95.06
72110;BME280;59983;52.010;5.420;2023-05-25T04:26:34;102734.50;;;9.89;95.10
72110;BME280;59983;52.010;5.420;2023-05-25T04:29:00;102735.25;;;9.94;95.74
72110;BME280;59983;52.010;5.420;2023-05-25T04:31:27;102743.00;;;10.01;95.57
72110;BME280;59983;52.010;5.420;2023-05-25T04:33:54;102735.97;;;10.00;95.61
72110;BME280;59983;52.010;5.420;2023-05-25T04:36:22;102741.09;;;10.02;95.86
72110;BME280;59983;52.010;5.420;2023-05-25T04:38:48;102747.47;;;10.11;96.39
72110;BME280;59983;52.010;5.420;2023-05-25T04:41:20;102746.31;;;10.17;95.87
72110;BME280;59983;52.010;5.420;2023-05-25T04:43:46;102754.06;;;10.24;96.27
72110;BME280;59983;52.010;5.420;2023-05-25T04:46:33;102747.41;;;10.35;96.32
72110;BME280;59983;52.010;5.420;2023-05-25T04:49:02;102755.75;;;10.38;96.27
72110;BME280;59983;52.010;5.420;2023-05-25T04:51:30;102763.00;;;10.43;96.10
72110;BME280;59983;52.010;5.420;2023-05-25T04:53:57;102763.09;;;10.38;96.43
72110;BME280;59983;52.010;5.420;2023-05-25T04:56:25;102762.41;;;10.46;96.37
72110;BME280;59983;52.010;5.420;2023-05-25T04:58:52;102758.28;;;10.48;95.96
72110;BME280;59983;52.010;5.420;2023-05-25T05:01:18;102777.34;;;10.62;95.52
72110;BME280;59983;52.010;5.420;2023-05-25T05:03:46;102782.53;;;10.59;95.10
72110;BME280;59983;52.010;5.420;2023-05-25T05:06:13;102780.13;;;10.57;95.66
72110;BME280;59983;52.010;5.420;2023-05-25T05:08:40;102784.81;;;10.70;95.06
72110;BME280;59983;52.010;5.420;2023-05-25T05:11:07;102790.94;;;10.76;94.91
72110;BME280;59983;52.010;5.420;2023-05-25T05:13:34;102791.47;;;10.78;94.82
72110;BME280;59983;52.010;5.420;2023-05-25T05:16:00;102795.78;;;10.79;95.15
72110;BME280;59983;52.010;5.420;2023-05-25T05:18:27;102788.34;;;10.85;95.16
72110;BME280;59983;52.010;5.420;2023-05-25T05:20:54;102786.34;;;10.90;94.98
72110;BME280;59983;52.010;5.420;2023-05-25T05:23:21;102793.00;;;10.98;95.30
72110;BME280;59983;52.010;5.420;2023-05-25T05:25:47;102779.03;;;11.04;94.71
72110;BME280;59983;52.010;5.420;2023-05-25T05:28:14;102784.53;;;10.99;95.07
72110;BME280;59983;52.010;5.420;2023-05-25T05:30:40;102782.81;;;10.90;95.21
72110;BME280;59983;52.010;5.420;2023-05-25T05:33:07;102781.34;;;10.97;95.10
72110;BME280;59983;52.010;5.420;2023-05-25T05:35:33;102783.84;;;11.07;95.09
72110;BME280;59983;52.010;5.420;2023-05-25T05:38:00;102785.38;;;11.14;95.44
72110;BME280;59983;52.010;5.420;2023-05-25T05:40:26;102784.88;;;11.25;94.93
72110;BME280;59983;52.010;5.420;2023-05-25T05:42:53;102794.81;;;11.30;94.75
72110;BME280;59983;52.010;5.420;2023-05-25T05:45:19;102800.78;;;11.32;94.67
72110;BME280;59983;52.010;5.420;2023-05-25T05:47:46;102799.56;;;11.38;94.50
72110;BME280;59983;52.010;5.420;2023-05-25T05:50:13;102805.19;;;11.55;94.00
72110;BME280;59983;52.010;5.420;2023-05-25T05:52:39;102811.84;;;11.49;93.67
72110;BME280;59983;52.010;5.420;2023-05-25T05:55:06;102808.94;;;11.59;94.08
72110;BME280;59983;52.010;5.420;2023-05-25T05:57:33;102816.97;;;11.64;93.56
72110;BME280;59983;52.010;5.420;2023-05-25T05:59:59;102817.97;;;11.69;93.51
72110;BME280;59983;52.010;5.420;2023-05-25T06:02:26;102825.72;;;11.89;93.16
72110;BME280;59983;52.010;5.420;2023-05-25T06:04:53;102822.09;;;11.94;92.71
72110;BME280;59983;52.010;5.420;2023-05-25T06:07:19;102822.47;;;12.01;91.88
72110;BME280;59983;52.010;5.420;2023-05-25T06:09:46;102828.22;;;11.99;92.26
72110;BME280;59983;52.010;5.420;2023-05-25T06:12:13;102820.34;;;12.11;91.82
72110;BME280;59983;52.010;5.420;2023-05-25T06:14:39;102822.88;;;12.08;91.95
72110;BME280;59983;52.010;5.420;2023-05-25T06:17:06;102830.19;;;12.21;91.97
72110;BME280;59983;52.010;5.420;2023-05-25T06:19:33;102829.09;;;12.22;91.82
72110;BME280;59983;52.010;5.420;2023-05-25T06:21:59;102828.53;;;12.34;91.48
72110;BME280;59983;52.010;5.420;2023-05-25T06:24:26;102840.84;;;12.54;91.30
72110;BME280;59983;52.010;5.420;2023-05-25T06:26:52;102838.06;;;12.67;90.90
72110;BME280;59983;52.010;5.420;2023-05-25T06:29:19;102840.06;;;12.75;89.85
72110;BME280;59983;52.010;5.420;2023-05-25T06:31:46;102837.69;;;12.83;89.94
72110;BME280;59983;52.010;5.420;2023-05-25T06:34:12;102841.94;;;12.97;89.88
72110;BME280;59983;52.010;5.420;2023-05-25T06:36:39;102837.09;;;13.17;88.80
72110;BME280;59983;52.010;5.420;2023-05-25T06:39:07;102844.38;;;13.30;88.35
72110;BME280;59983;52.010;5.420;2023-05-25T06:41:33;102840.97;;;13.24;88.14
72110;BME280;59983;52.010;5.420;2023-05-25T06:44:00;102838.97;;;13.39;87.58
72110;BME280;59983;52.010;5.420;2023-05-25T06:46:27;102845.75;;;13.50;87.03
72110;BME280;59983;52.010;5.420;2023-05-25T06:48:53;102852.34;;;13.57;86.74
72110;BME280;59983;52.010;5.420;2023-05-25T06:51:20;102852.00;;;13.50;86.07
72110;BME280;59983;52.010;5.420;2023-05-25T06:53:46;102845.47;;;13.69;86.31
72110;BME280;59983;52.010;5.420;2023-05-25T06:56:13;102850.34;;;13.89;85.30
72110;BME280;59983;52.010;5.420;2023-05-25T06:58:40;102861.13;;;14.03;84.64
72110;BME280;59983;52.010;5.420;2023-05-25T07:01:06;102852.00;;;14.07;83.62
72110;BME280;59983;52.010;5.420;2023-05-25T07:03:33;102858.09;;;14.13;83.88
72110;BME280;59983;52.010;5.420;2023-05-25T07:06:00;102863.25;;;14.32;83.40
72110;BME280;59983;52.010;5.420;2023-05-25T07:08:26;102865.97;;;14.14;82.35
72110;BME280;59983;52.010;5.420;2023-05-25T07:10:53;102858.41;;;14.29;82.98
72110;BME280;59983;52.010;5.420;2023-05-25T07:13:19;102861.34;;;14.32;82.78
72110;BME280;59983;52.010;5.420;2023-05-25T07:15:46;102858.44;;;14.55;81.72
72110;BME280;59983;52.010;5.420;2023-05-25T07:18:13;102862.94;;;14.68;81.05
72110;BME280;59983;52.010;5.420;2023-05-25T07:20:39;102858.44;;;14.63;80.87
72110;BME280;59983;52.010;5.420;2023-05-25T07:23:10;102855.88;;;14.67;81.03
72110;BME280;59983;52.010;5.420;2023-05-25T07:25:37;102855.38;;;14.73;81.09
72110;BME280;59983;52.010;5.420;2023-05-25T07:28:04;102858.28;;;14.86;80.27
72110;BME280;59983;52.010;5.420;2023-05-25T07:30:31;102859.84;;;14.95;79.90
72110;BME280;59983;52.010;5.420;2023-05-25T07:32:58;102856.75;;;15.14;79.89
72110;BME280;59983;52.010;5.420;2023-05-25T07:35:25;102863.91;;;15.27;77.95
72110;BME280;59983;52.010;5.420;2023-05-25T07:38:02;102874.31;;;15.43;78.63
72110;BME280;59983;52.010;5.420;2023-05-25T07:40:31;102866.53;;;15.62;76.74
72110;BME280;59983;52.010;5.420;2023-05-25T07:42:58;102872.31;;;15.69;75.37
72110;BME280;59983;52.010;5.420;2023-05-25T07:45:25;102875.78;;;15.78;74.98
72110;BME280;59983;52.010;5.420;2023-05-25T07:47:51;102877.97;;;15.64;75.77
72110;BME280;59983;52.010;5.420;2023-05-25T07:50:18;102881.34;;;15.61;75.63
72110;BME280;59983;52.010;5.420;2023-05-25T07:52:45;102877.31;;;15.67;75.93
72110;BME280;59983;52.010;5.420;2023-05-25T07:55:12;102885.19;;;15.60;73.87
72110;BME280;59983;52.010;5.420;2023-05-25T07:57:38;102875.97;;;15.35;74.82
72110;BME280;59983;52.010;5.420;2023-05-25T08:00:06;102883.84;;;15.37;74.78
72110;BME280;59983;52.010;5.420;2023-05-25T08:02:36;102889.13;;;15.42;72.71
72110;BME280;59983;52.010;5.420;2023-05-25T08:05:03;102893.16;;;15.36;73.55
72110;BME280;59983;52.010;5.420;2023-05-25T08:07:32;102900.66;;;15.56;73.91
72110;BME280;59983;52.010;5.420;2023-05-25T08:09:59;102899.22;;;15.58;73.68
72110;BME280;59983;52.010;5.420;2023-05-25T08:12:26;102892.94;;;15.58;73.84
72110;BME280;59983;52.010;5.420;2023-05-25T08:15:13;102894.16;;;15.78;74.07
72110;BME280;59983;52.010;5.420;2023-05-25T08:17:39;102905.81;;;15.96;74.09
72110;BME280;59983;52.010;5.420;2023-05-25T08:20:07;102900.84;;;15.89;72.89
72110;BME280;59983;52.010;5.420;2023-05-25T08:22:34;102899.16;;;15.76;72.02
72110;BME280;59983;52.010;5.420;2023-05-25T08:25:03;102904.84;;;15.62;73.25
72110;BME280;59983;52.010;5.420;2023-05-25T08:27:29;102902.75;;;15.68;73.70
72110;BME280;59983;52.010;5.420;2023-05-25T08:30:00;102906.91;;;15.74;71.21
72110;BME280;59983;52.010;5.420;2023-05-25T08:32:27;102918.31;;;15.76;72.83
72110;BME280;59983;52.010;5.420;2023-05-25T08:34:53;102916.84;;;15.78;71.59
72110;BME280;59983;52.010;5.420;2023-05-25T08:37:20;102911.19;;;15.83;70.57
72110;BME280;59983;52.010;5.420;2023-05-25T08:39:49;102916.66;;;15.83;71.76
72110;BME280;59983;52.010;5.420;2023-05-25T08:42:15;102916.63;;;15.92;70.83
72110;BME280;59983;52.010;5.420;2023-05-25T08:44:42;102921.50;;;15.78;71.42
72110;BME280;59983;52.010;5.420;2023-05-25T08:47:09;102919.03;;;15.64;71.22
72110;BME280;59983;52.010;5.420;2023-05-25T08:49:38;102912.22;;;15.70;72.97
72110;BME280;59983;52.010;5.420;2023-05-25T08:52:09;102912.94;;;15.88;71.23
72110;BME280;59983;52.010;5.420;2023-05-25T08:54:42;102908.25;;;15.89;71.16
72110;BME280;59983;52.010;5.420;2023-05-25T09:00:07;102913.78;;;16.09;69.43
72110;BME280;59983;52.010;5.420;2023-05-25T09:02:41;102916.25;;;16.23;70.00
72110;BME280;59983;52.010;5.420;2023-05-25T09:05:12;102913.03;;;16.72;69.51
72110;BME280;59983;52.010;5.420;2023-05-25T09:07:41;102914.00;;;16.88;65.04
72110;BME280;59983;52.010;5.420;2023-05-25T09:10:09;102919.44;;;16.76;67.50
72110;BME280;59983;52.010;5.420;2023-05-25T09:12:37;102913.94;;;16.76;67.37
72110;BME280;59983;52.010;5.420;2023-05-25T09:15:04;102915.34;;;16.82;64.79
72110;BME280;59983;52.010;5.420;2023-05-25T09:17:31;102910.06;;;16.56;65.74
72110;BME280;59983;52.010;5.420;2023-05-25T09:19:58;102912.06;;;16.47;65.23
72110;BME280;59983;52.010;5.420;2023-05-25T09:22:25;102915.72;;;16.51;67.43
72110;BME280;59983;52.010;5.420;2023-05-25T09:24:52;102918.97;;;16.53;66.55
72110;BME280;59983;52.010;5.420;2023-05-25T09:27:21;102918.66;;;16.66;65.19
72110;BME280;59983;52.010;5.420;2023-05-25T09:29:49;102911.91;;;17.06;63.34
72110;BME280;59983;52.010;5.420;2023-05-25T09:32:17;102907.38;;;17.34;62.38
72110;BME280;59983;52.010;5.420;2023-05-25T09:34:47;102908.66;;;17.61;63.14
72110;BME280;59983;52.010;5.420;2023-05-25T09:37:15;102904.94;;;17.78;60.58
72110;BME280;59983;52.010;5.420;2023-05-25T09:39:43;102891.97;;;17.66;63.35
72110;BME280;59983;52.010;5.420;2023-05-25T09:42:10;102900.09;;;17.63;63.06
72110;BME280;59983;52.010;5.420;2023-05-25T09:44:38;102901.63;;;17.85;62.98
72110;BME280;59983;52.010;5.420;2023-05-25T09:47:05;102890.44;;;18.30;59.80
72110;BME280;59983;52.010;5.420;2023-05-25T09:49:31;102893.50;;;18.28;59.71
72110;BME280;59983;52.010;5.420;2023-05-25T09:51:59;102896.59;;;18.39;58.42
72110;BME280;59983;52.010;5.420;2023-05-25T09:54:26;102892.41;;;18.17;58.76
72110;BME280;59983;52.010;5.420;2023-05-25T09:56:53;102901.16;;;18.47;56.41
72110;BME280;59983;52.010;5.420;2023-05-25T09:59:21;102895.59;;;18.31;57.89
72110;BME280;59983;52.010;5.420;2023-05-25T10:01:50;102894.09;;;18.62;57.67
72110;BME280;59983;52.010;5.420;2023-05-25T10:04:20;102887.94;;;18.65;56.58
72110;BME280;59983;52.010;5.420;2023-05-25T10:06:47;102885.06;;;18.89;56.59
72110;BME280;59983;52.010;5.420;2023-05-25T10:09:18;102887.03;;;19.05;57.58
72110;BME280;59983;52.010;5.420;2023-05-25T10:11:45;102891.84;;;19.23;55.06
72110;BME280;59983;52.010;5.420;2023-05-25T10:14:25;102879.81;;;19.28;54.19
72110;BME280;59983;52.010;5.420;2023-05-25T10:16:57;102877.66;;;19.37;52.77
72110;BME280;59983;52.010;5.420;2023-05-25T10:19:29;102879.94;;;19.51;54.65
72110;BME280;59983;52.010;5.420;2023-05-25T10:22:03;102882.72;;;19.19;54.02
72110;BME280;59983;52.010;5.420;2023-05-25T10:24:41;102890.00;;;18.68;54.64
72110;BME280;59983;52.010;5.420;2023-05-25T10:27:16;102893.22;;;18.46;56.14
72110;BME280;59983;52.010;5.420;2023-05-25T10:29:55;102901.75;;;18.28;56.13
72110;BME280;59983;52.010;5.420;2023-05-25T10:32:22;102903.66;;;18.12;56.43
72110;BME280;59983;52.010;5.420;2023-05-25T10:34:51;102898.47;;;18.23;57.84
72110;BME280;59983;52.010;5.420;2023-05-25T10:37:17;102900.75;;;18.61;58.05
72110;BME280;59983;52.010;5.420;2023-05-25T10:39:44;102902.91;;;18.95;56.41
72110;BME280;59983;52.010;5.420;2023-05-25T10:42:11;102893.13;;;19.26;56.40
72110;BME280;59983;52.010;5.420;2023-05-25T10:44:41;102898.66;;;18.98;55.46
72110;BME280;59983;52.010;5.420;2023-05-25T10:47:09;102897.09;;;18.69;56.79
72110;BME280;59983;52.010;5.420;2023-05-25T10:49:51;102898.94;;;18.65;57.60
72110;BME280;59983;52.010;5.420;2023-05-25T10:52:18;102898.06;;;18.49;57.66
72110;BME280;59983;52.010;5.420;2023-05-25T10:54:48;102901.97;;;18.35;58.80
72110;BME280;59983;52.010;5.420;2023-05-25T10:57:20;102900.03;;;18.36;58.68
72110;BME280;59983;52.010;5.420;2023-05-25T10:59:51;102894.00;;;18.30;58.15
72110;BME280;59983;52.010;5.420;2023-05-25T11:02:20;102904.09;;;18.14;57.67
72110;BME280;59983;52.010;5.420;2023-05-25T11:07:59;102912.72;;;17.76;56.65
72110;BME280;59983;52.010;5.420;2023-05-25T11:26:29;102900.19;;;18.15;56.79
72110;BME280;59983;52.010;5.420;2023-05-25T11:28:57;102900.19;;;18.15;56.87
72110;BME280;59983;52.010;5.420;2023-05-25T11:31:31;102900.72;;;18.33;56.07
72110;BME280;59983;52.010;5.420;2023-05-25T11:34:05;102900.78;;;18.21;56.99
72110;BME280;59983;52.010;5.420;2023-05-25T11:36:34;102890.50;;;18.05;56.80
72110;BME280;59983;52.010;5.420;2023-05-25T11:39:04;102893.94;;;18.02;56.58
72110;BME280;59983;52.010;5.420;2023-05-25T11:42:00;102887.03;;;18.08;57.76
72110;BME280;59983;52.010;5.420;2023-05-25T11:44:29;102880.66;;;18.04;56.47
72110;BME280;59983;52.010;5.420;2023-05-25T11:47:00;102882.34;;;18.21;57.60
72110;BME280;59983;52.010;5.420;2023-05-25T11:49:27;102877.66;;;18.50;55.73
72110;BME280;59983;52.010;5.420;2023-05-25T11:51:56;102880.75;;;18.48;55.20
72110;BME280;59983;52.010;5.420;2023-05-25T11:54:23;102875.81;;;18.54;56.30
72110;BME280;59983;52.010;5.420;2023-05-25T11:56:50;102872.09;;;18.74;55.34
72110;BME280;59983;52.010;5.420;2023-05-25T11:59:16;102878.03;;;18.76;56.35
72110;BME280;59983;52.010;5.420;2023-05-25T12:01:43;102871.53;;;18.68;55.77
72110;BME280;59983;52.010;5.420;2023-05-25T12:04:10;102873.38;;;18.64;57.41
72110;BME280;59983;52.010;5.420;2023-05-25T12:06:37;102870.38;;;18.42;57.66
72110;BME280;59983;52.010;5.420;2023-05-25T12:09:10;102869.91;;;18.39;57.80
72110;BME280;59983;52.010;5.420;2023-05-25T12:11:37;102874.50;;;18.35;57.21
72110;BME280;59983;52.010;5.420;2023-05-25T12:14:06;102884.72;;;18.23;57.98
72110;BME280;59983;52.010;5.420;2023-05-25T12:16:33;102874.78;;;18.18;57.94
72110;BME280;59983;52.010;5.420;2023-05-25T12:19:02;102866.50;;;18.30;56.30
72110;BME280;59983;52.010;5.420;2023-05-25T12:21:29;102871.50;;;18.40;55.18
72110;BME280;59983;52.010;5.420;2023-05-25T12:23:56;102868.75;;;18.96;53.94
72110;BME280;59983;52.010;5.420;2023-05-25T12:26:23;102868.44;;;18.70;54.64
72110;BME280;59983;52.010;5.420;2023-05-25T12:28:59;102867.06;;;18.64;55.13
72110;BME280;59983;52.010;5.420;2023-05-25T12:31:28;102865.94;;;19.24;53.11
72110;BME280;59983;52.010;5.420;2023-05-25T12:34:21;102866.28;;;19.07;53.82
72110;BME280;59983;52.010;5.420;2023-05-25T12:36:53;102858.63;;;18.85;55.35
72110;BME280;59983;52.010;5.420;2023-05-25T12:39:31;102866.97;;;18.88;55.44
72110;BME280;59983;52.010;5.420;2023-05-25T12:42:01;102862.66;;;19.03;55.06
72110;BME280;59983;52.010;5.420;2023-05-25T12:44:29;102858.81;;;18.92;54.51
72110;BME280;59983;52.010;5.420;2023-05-25T12:47:12;102852.72;;;19.14;54.72
72110;BME280;59983;52.010;5.420;2023-05-25T12:49:41;102861.94;;;19.22;53.92
72110;BME280;59983;52.010;5.420;2023-05-25T12:52:08;102858.13;;;19.11;53.80
72110;BME280;59983;52.010;5.420;2023-05-25T12:57:04;102877.59;;;18.74;55.86
72110;BME280;59983;52.010;5.420;2023-05-25T12:59:35;102865.34;;;18.72;55.54
72110;BME280;59983;52.010;5.420;2023-05-25T13:02:03;102858.19;;;18.83;56.17
72110;BME280;59983;52.010;5.420;2023-05-25T13:04:30;102867.59;;;18.82;54.88
72110;BME280;59983;52.010;5.420;2023-05-25T13:06:57;102866.91;;;19.16;54.45
72110;BME280;59983;52.010;5.420;2023-05-25T13:09:24;102859.28;;;19.57;53.77
72110;BME280;59983;52.010;5.420;2023-05-25T13:11:55;102852.38;;;19.98;52.63
72110;BME280;59983;52.010;5.420;2023-05-25T13:14:23;102856.03;;;19.87;51.95
72110;BME280;59983;52.010;5.420;2023-05-25T13:16:51;102864.16;;;19.79;51.55
72110;BME280;59983;52.010;5.420;2023-05-25T13:19:19;102856.34;;;19.66;53.23
72110;BME280;59983;52.010;5.420;2023-05-25T13:21:46;102863.72;;;19.46;53.08
72110;BME280;59983;52.010;5.420;2023-05-25T13:24:14;102859.63;;;19.24;54.97
72110;BME280;59983;52.010;5.420;2023-05-25T13:26:47;102858.75;;;19.20;55.43